Time;durP1;ratioP1;P1;durP2;ratioP2;P2;SDS_P1;SDS_P2;PMS_P1;PMS_P2;Temp;Humidity;BMP_temperature;BMP_pressure;BME280_temperature;BME280_humidity;BME280_pressure;Samples;Min_cycle;Max_cycle;Signal;HPM_P1;HPM_P2
2022/04/19 00:01:17;;;;;;;3.70;2.80;;;;;;;5.57;58.21;100116.54;87903;1281;94624;-60
2022/04/19 00:03:26;;;;;;;5.50;3.90;;;;;;;5.59;58.39;100116.54;87906;1281;77209;-62
2022/04/19 00:05:32;;;;;;;5.00;2.90;;;;;;;5.58;58.49;100115.94;87975;1281;82145;-60
2022/04/19 00:07:39;;;;;;;5.00;3.00;;;;;;;5.56;58.84;100114.66;87905;1281;100269;-60
2022/04/19 00:09:48;;;;;;;5.60;3.40;;;;;;;5.55;58.86;100118.36;87961;1281;86657;-60
2022/04/19 00:11:57;;;;;;;6.50;3.10;;;;;;;5.50;59.09;100116.02;87985;1281;95654;-60
2022/04/19 00:14:08;;;;;;;5.30;3.10;;;;;;;5.53;59.07;100113.64;87890;1281;81303;-60
2022/04/19 00:16:14;;;;;;;6.60;3.40;;;;;;;5.54;59.49;100111.91;87997;1279;80463;-60
2022/04/19 00:18:23;;;;;;;5.70;3.30;;;;;;;5.53;59.71;100107.51;88008;1279;98438;-70
2022/04/19 00:20:30;;;;;;;6.40;3.40;;;;;;;5.54;59.81;100108.90;87997;1280;88609;-70
2022/04/19 00:22:36;;;;;;;5.50;3.00;;;;;;;5.53;60.08;100106.14;87928;1281;94106;-62
2022/04/19 00:24:42;;;;;;;6.50;3.40;;;;;;;5.54;59.99;100108.87;87982;1279;77390;-59
2022/04/19 00:26:48;;;;;;;5.70;3.30;;;;;;;5.53;59.99;100105.21;87925;1281;82749;-70
2022/04/19 00:28:53;;;;;;;6.40;3.40;;;;;;;5.52;60.10;100104.23;87995;1280;99678;-70
2022/04/19 00:30:59;;;;;;;6.20;3.60;;;;;;;5.53;60.24;100106.85;87917;1281;86727;-71
2022/04/19 00:33:06;;;;;;;4.20;3.20;;;;;;;5.52;60.20;100106.17;88016;1279;93658;-70
2022/04/19 00:35:13;;;;;;;6.50;3.70;;;;;;;5.51;60.21;100105.98;87984;1279;78661;-70
2022/04/19 00:37:19;;;;;;;5.80;3.70;;;;;;;5.43;60.61;100107.16;88025;1280;81355;-61
2022/04/19 00:39:25;;;;;;;6.90;3.40;;;;;;;5.38;60.74;100107.14;87979;1281;98190;-60
2022/04/19 00:41:30;;;;;;;6.20;3.80;;;;;;;5.31;61.05;100110.55;87841;1281;88443;-60
2022/04/19 00:43:36;;;;;;;7.50;3.70;;;;;;;5.24;61.22;100107.40;87891;1281;95069;-61
2022/04/19 00:45:42;;;;;;;5.70;3.70;;;;;;;5.18;61.50;100104.08;87870;1281;77946;-60
2022/04/19 00:47:48;;;;;;;8.10;3.60;;;;;;;5.13;61.81;100108.38;87943;1281;81265;-63
2022/04/19 00:49:57;;;;;;;7.10;3.50;;;;;;;5.07;62.10;100105.80;88019;1279;99624;-60
2022/04/19 00:52:05;;;;;;;5.30;3.30;;;;;;;5.06;62.51;100104.92;88033;1279;88370;-70
2022/04/19 00:54:11;;;;;;;6.00;3.30;;;;;;;5.01;63.64;100098.85;88030;1279;95426;-69
2022/04/19 00:56:20;;;;;;;5.50;3.30;;;;;;;4.99;63.30;100097.81;88009;1279;80956;-68
2022/04/19 00:58:26;;;;;;;5.70;3.20;;;;;;;4.97;63.60;100093.68;88020;1279;82121;-60
2022/04/19 01:00:35;;;;;;;5.90;2.80;;;;;;;4.93;63.90;100094.11;88031;1279;99833;-60
2022/04/19 01:02:43;;;;;;;5.00;2.80;;;;;;;4.88;64.19;100095.15;88013;1279;88398;-61
2022/04/19 01:04:50;;;;;;;4.40;2.70;;;;;;;4.80;64.16;100093.74;88051;1279;95359;-62
2022/04/19 01:06:59;;;;;;;4.60;3.10;;;;;;;4.78;64.27;100090.28;88015;1279;77082;-68
2022/04/19 01:09:06;;;;;;;5.90;3.10;;;;;;;4.76;64.26;100090.41;88026;1279;81085;-68
2022/04/19 01:13:32;;;;;;;5.70;3.00;;;;;;;4.76;64.55;100083.92;87583;1284;88241;-68
2022/04/19 01:15:41;;;;;;;4.20;2.50;;;;;;;4.74;64.81;100080.77;87795;1279;94002;-70
2022/04/19 01:17:48;;;;;;;5.10;2.50;;;;;;;4.74;64.97;100076.73;88030;1279;78805;-71
2022/04/19 01:19:54;;;;;;;4.60;2.70;;;;;;;4.71;65.13;100080.58;88057;1279;82001;-69
2022/04/19 01:22:00;;;;;;;3.30;2.40;;;;;;;4.71;65.29;100078.45;88054;1279;99262;-70
2022/04/19 01:24:07;;;;;;;4.80;2.50;;;;;;;4.67;65.66;100075.29;87982;1279;88001;-69
2022/04/19 01:26:13;;;;;;;4.60;2.30;;;;;;;4.68;65.58;100072.36;87872;1281;95810;-69
2022/04/19 01:28:22;;;;;;;4.30;2.20;;;;;;;4.66;65.96;100074.71;88035;1279;78407;-71
2022/04/19 01:30:33;;;;;;;4.30;2.50;;;;;;;4.63;65.91;100073.39;88058;1279;80664;-68
2022/04/19 01:32:39;;;;;;;7.90;2.50;;;;;;;4.62;66.04;100072.02;88006;1279;100419;-59
2022/04/19 01:34:45;;;;;;;3.80;2.50;;;;;;;4.59;66.19;100071.47;88028;1279;88408;-60
2022/04/19 01:36:52;;;;;;;4.00;2.20;;;;;;;4.59;66.40;100070.26;88052;1279;95388;-60
2022/04/19 01:39:01;;;;;;;5.10;2.60;;;;;;;4.58;66.49;100064.30;88021;1279;76974;-60
2022/04/19 01:41:08;;;;;;;4.20;2.50;;;;;;;4.58;66.52;100066.23;88061;1279;82084;-60
2022/04/19 01:43:14;;;;;;;4.00;2.70;;;;;;;4.56;66.66;100065.10;87873;1281;100761;-61
2022/04/19 01:45:23;;;;;;;6.30;2.60;;;;;;;4.56;66.76;100064.98;88042;1279;88986;-60
2022/04/19 01:47:29;;;;;;;3.20;2.50;;;;;;;4.59;66.88;100067.08;88033;1279;94882;-60
2022/04/19 01:49:38;;;;;;;3.90;2.40;;;;;;;4.57;67.02;100061.89;88018;1279;81110;-60
2022/04/19 01:51:46;;;;;;;3.20;2.10;;;;;;;4.58;67.25;100062.84;88008;1279;80764;-71
2022/04/19 01:53:56;;;;;;;3.50;2.30;;;;;;;4.62;67.30;100061.89;88026;1279;99467;-70
2022/04/19 01:56:01;;;;;;;5.40;2.30;;;;;;;4.66;67.40;100062.06;87931;1280;89392;-70
2022/04/19 01:58:10;;;;;;;4.20;2.30;;;;;;;4.65;67.60;100061.23;87964;1281;95119;-70
2022/04/19 02:00:20;;;;;;;5.90;2.30;;;;;;;4.64;67.71;100065.77;88025;1279;77957;-70
2022/04/19 02:02:26;;;;;;;5.20;2.70;;;;;;;4.65;67.81;100065.11;88008;1280;80728;-68
2022/04/19 02:04:32;;;;;;;3.40;2.30;;;;;;;4.67;67.80;100066.92;87987;1279;99242;-70
2022/04/19 02:06:39;;;;;;;4.90;2.80;;;;;;;4.66;67.78;100060.26;88008;1280;88893;-67
2022/04/19 02:08:48;;;;;;;3.70;2.70;;;;;;;4.68;67.68;100062.67;87966;1279;95171;-60
2022/04/19 02:10:54;;;;;;;4.50;2.20;;;;;;;4.64;67.99;100061.19;87968;1280;80392;-60
2022/04/19 02:13:00;;;;;;;5.20;2.70;;;;;;;4.59;68.12;100057.01;88022;1281;80515;-71
2022/04/19 02:15:12;;;;;;;4.10;2.40;;;;;;;4.60;68.16;100057.49;87969;1281;100152;-71
2022/04/19 02:17:23;;;;;;;4.70;2.60;;;;;;;4.62;68.32;100061.38;87919;1281;88143;-61
2022/04/19 02:19:33;;;;;;;5.60;2.90;;;;;;;4.70;68.15;100057.67;87961;1280;95743;-59
2022/04/19 02:21:39;;;;;;;5.60;3.30;;;;;;;4.72;68.26;100059.61;87960;1281;78843;-60
2022/04/19 02:23:45;;;;;;;7.20;3.90;;;;;;;4.69;68.66;100058.30;87978;1281;82202;-71
2022/04/19 02:25:54;;;;;;;6.40;3.50;;;;;;;4.64;68.37;100057.04;87962;1281;99655;-70
2022/04/19 02:28:01;;;;;;;5.90;3.70;;;;;;;4.66;68.56;100058.45;87970;1281;89207;-70
2022/04/19 02:30:13;;;;;;;7.20;3.90;;;;;;;4.55;69.31;100058.00;88026;1281;93855;-71
2022/04/19 02:32:23;;;;;;;5.00;3.70;;;;;;;4.53;68.72;100055.21;87978;1281;77714;-60
2022/04/19 02:34:29;;;;;;;4.90;3.50;;;;;;;4.52;68.89;100056.02;87901;1281;82904;-60
2022/04/19 02:36:35;;;;;;;6.10;3.90;;;;;;;4.49;68.65;100053.80;87896;1281;99994;-62
2022/04/19 02:38:42;;;;;;;9.20;4.00;;;;;;;4.48;68.72;100056.28;87997;1281;86772;-70
2022/04/19 02:40:47;;;;;;;5.40;3.10;;;;;;;4.44;68.76;100056.83;87893;1281;93686;-70
2022/04/19 02:42:57;;;;;;;6.10;3.80;;;;;;;4.45;68.72;100053.56;87869;1281;80701;-60
2022/04/19 02:45:04;;;;;;;6.50;3.30;;;;;;;4.43;69.28;100056.19;87878;1281;82533;-60
2022/04/19 02:47:09;;;;;;;4.80;3.30;;;;;;;4.42;69.09;100053.27;88007;1281;98787;-61
2022/04/19 02:49:15;;;;;;;6.20;3.50;;;;;;;4.43;68.99;100049.49;88010;1280;87356;-61
2022/04/19 02:51:22;;;;;;;5.20;3.00;;;;;;;4.42;69.02;100052.27;87984;1281;94262;-61
2022/04/19 02:53:27;;;;;;;7.00;3.10;;;;;;;4.43;69.22;100050.74;87986;1281;80818;-59
2022/04/19 02:55:33;;;;;;;8.90;2.90;;;;;;;4.38;69.10;100053.89;88005;1281;80742;-60
2022/04/19 02:57:39;;;;;;;4.90;3.20;;;;;;;4.34;69.09;100054.50;88051;1279;97643;-71
2022/04/19 02:59:45;;;;;;;4.10;3.00;;;;;;;4.33;69.16;100049.45;88010;1279;87431;-70
2022/04/19 03:01:51;;;;;;;3.80;2.90;;;;;;;4.30;69.25;100053.17;88010;1279;95333;-61
2022/04/19 03:03:57;;;;;;;4.70;2.90;;;;;;;4.29;69.54;100052.36;88037;1279;79155;-58
2022/04/19 03:06:03;;;;;;;4.30;2.70;;;;;;;4.26;69.43;100051.41;88025;1279;83257;-60
2022/04/19 03:08:11;;;;;;;4.60;2.00;;;;;;;4.21;69.99;100056.63;88031;1279;98820;-60
2022/04/19 03:10:17;;;;;;;3.70;2.10;;;;;;;4.16;69.86;100053.19;88023;1279;88854;-60
2022/04/19 03:12:27;;;;;;;3.30;1.90;;;;;;;4.18;69.77;100056.14;87978;1281;95130;-69
2022/04/19 03:14:36;;;;;;;3.20;2.30;;;;;;;4.25;69.50;100053.20;88032;1279;79926;-68
2022/04/19 03:16:42;;;;;;;3.60;2.20;;;;;;;4.29;69.83;100058.10;88001;1279;81639;-60
2022/04/19 03:18:51;;;;;;;3.70;2.10;;;;;;;4.21;70.47;100059.92;88025;1279;100024;-59
2022/04/19 03:20:56;;;;;;;3.90;2.40;;;;;;;4.21;70.11;100061.03;87398;1280;861761;-59
2022/04/19 03:27:53;;;;;;;4.10;2.80;;;;;;;4.09;70.51;100069.06;88010;1281;83744;-60
2022/04/19 03:29:59;;;;;;;3.70;2.30;;;;;;;4.05;70.41;100070.11;87967;1281;100255;-61
2022/04/19 03:32:09;;;;;;;2.80;2.10;;;;;;;4.00;70.56;100068.50;87989;1281;88120;-71
2022/04/19 03:34:15;;;;;;;3.10;1.80;;;;;;;3.99;70.29;100070.55;87984;1281;94880;-71
2022/04/19 03:36:22;;;;;;;2.20;1.70;;;;;;;3.94;70.61;100066.95;87972;1281;79781;-69
2022/04/19 03:38:30;;;;;;;2.40;1.90;;;;;;;3.98;70.36;100069.27;87868;1281;82036;-60
2022/04/19 03:40:36;;;;;;;3.80;2.50;;;;;;;3.96;70.79;100070.84;87990;1281;99406;-60
2022/04/19 03:42:42;;;;;;;4.30;2.30;;;;;;;4.02;70.63;100070.59;87986;1281;87464;-61
2022/04/19 03:44:51;;;;;;;3.80;2.50;;;;;;;4.09;70.27;100067.43;87985;1281;96048;-59
2022/04/19 03:47:10;;;;;;;4.40;2.30;;;;;;;4.11;70.45;100071.42;87975;1281;80786;-59
2022/04/19 03:49:16;;;;;;;3.50;2.20;;;;;;;4.05;70.70;100076.95;87971;1281;82164;-61
2022/04/19 03:51:21;;;;;;;5.80;3.10;;;;;;;3.97;70.54;100075.23;88000;1281;99529;-60
2022/04/19 03:53:27;;;;;;;4.20;2.20;;;;;;;3.95;70.52;100079.31;87876;1281;88307;-72
2022/04/19 03:55:33;;;;;;;5.10;2.70;;;;;;;3.84;71.14;100080.52;88002;1279;95716;-74
2022/04/19 03:57:39;;;;;;;7.50;3.40;;;;;;;3.80;71.09;100080.20;88009;1279;78163;-60
2022/04/19 03:59:46;;;;;;;9.20;4.10;;;;;;;3.72;71.06;100076.18;88016;1279;82563;-60
2022/04/19 04:01:52;;;;;;;6.30;2.90;;;;;;;3.67;71.18;100073.55;88005;1279;99706;-75
2022/04/19 04:03:57;;;;;;;5.00;2.10;;;;;;;3.69;70.64;100080.04;88029;1279;89689;-74
2022/04/19 04:06:04;;;;;;;4.40;2.50;;;;;;;3.73;70.44;100080.88;88004;1279;95580;-74
2022/04/19 04:08:10;;;;;;;4.50;2.10;;;;;;;3.77;70.46;100081.77;88016;1279;76687;-60
2022/04/19 04:10:16;;;;;;;2.60;1.50;;;;;;;3.82;70.58;100086.05;88026;1279;82007;-61
2022/04/19 04:12:22;;;;;;;4.70;2.70;;;;;;;3.77;71.12;100090.09;88010;1279;99774;-75
2022/04/19 04:14:28;;;;;;;4.00;2.40;;;;;;;3.82;70.49;100089.23;88031;1279;89118;-73
2022/04/19 04:16:34;;;;;;;5.10;2.70;;;;;;;3.87;70.46;100089.14;87985;1279;93684;-73
2022/04/19 04:18:40;;;;;;;3.80;2.70;;;;;;;3.82;70.93;100093.84;88029;1279;77693;-60
2022/04/19 04:20:46;;;;;;;5.10;3.00;;;;;;;3.76;71.13;100097.66;88011;1279;81600;-61
2022/04/19 04:22:51;;;;;;;2.80;2.30;;;;;;;3.70;71.34;100096.73;88022;1279;100517;-75
2022/04/19 04:24:57;;;;;;;4.50;2.70;;;;;;;3.69;71.58;100100.95;88037;1279;87485;-75
2022/04/19 04:27:03;;;;;;;5.00;3.10;;;;;;;3.70;71.45;100102.98;88017;1279;95460;-74
2022/04/19 04:29:08;;;;;;;5.50;2.70;;;;;;;3.71;72.11;100107.46;88037;1280;78671;-74
2022/04/19 04:31:14;;;;;;;4.80;3.20;;;;;;;3.68;72.25;100110.80;88032;1279;81264;-74
2022/04/19 04:33:21;;;;;;;3.30;2.30;;;;;;;3.69;72.18;100115.91;87971;1281;99420;-74
2022/04/19 04:35:28;;;;;;;6.40;3.40;;;;;;;3.68;72.36;100119.38;88042;1280;86808;-74
2022/04/19 04:37:34;;;;;;;4.90;3.20;;;;;;;3.68;72.43;100115.94;88038;1279;95959;-61
2022/04/19 04:39:40;;;;;;;6.60;3.70;;;;;;;3.69;72.51;100119.98;88020;1280;78870;-60
2022/04/19 04:41:45;;;;;;;4.50;2.90;;;;;;;3.71;72.16;100122.59;88031;1279;81434;-76
2022/04/19 04:43:52;;;;;;;6.60;5.00;;;;;;;3.76;71.94;100124.97;87999;1279;99396;-74
2022/04/19 04:50:45;;;;;;;4.40;3.00;;;;;;;3.63;73.02;100126.95;87982;1280;79129;-60
2022/04/19 04:52:52;;;;;;;4.40;3.30;;;;;;;3.61;72.98;100128.98;87976;1281;83459;-74
2022/04/19 04:54:58;;;;;;;4.10;3.30;;;;;;;3.60;73.15;100133.52;87903;1281;98135;-75
2022/04/19 04:57:05;;;;;;;4.10;2.80;;;;;;;3.60;73.06;100132.96;87870;1281;88635;-61
2022/04/19 04:59:11;;;;;;;6.30;3.20;;;;;;;3.62;73.04;100134.05;87983;1280;95874;-61
2022/04/19 05:01:18;;;;;;;8.30;4.00;;;;;;;3.69;73.08;100135.11;87982;1281;80035;-61
2022/04/19 05:03:24;;;;;;;3.70;2.60;;;;;;;3.71;72.97;100139.15;88022;1281;82072;-61
2022/04/19 05:05:30;;;;;;;3.40;2.40;;;;;;;3.75;72.90;100138.29;87996;1281;99931;-60
2022/04/19 05:07:39;;;;;;;3.80;2.30;;;;;;;3.75;73.39;100144.15;87990;1281;88582;-60
2022/04/19 05:09:46;;;;;;;5.20;3.00;;;;;;;3.68;73.39;100141.61;87987;1281;94921;-60
2022/04/19 05:11:56;;;;;;;3.80;2.50;;;;;;;3.69;73.20;100143.23;87982;1281;79009;-74
2022/04/19 05:14:02;;;;;;;7.10;3.50;;;;;;;3.70;73.28;100144.08;88008;1281;81428;-60
2022/04/19 05:16:09;;;;;;;7.50;3.20;;;;;;;3.63;73.51;100145.91;87815;1282;99583;-59
2022/04/19 05:18:15;;;;;;;4.50;2.70;;;;;;;3.62;73.38;100149.14;88021;1281;88380;-61
2022/04/19 05:20:22;;;;;;;4.40;2.90;;;;;;;3.68;73.14;100147.00;87970;1281;95083;-60
2022/04/19 05:22:28;;;;;;;3.50;2.30;;;;;;;3.67;73.40;100151.13;87864;1281;78823;-59
2022/04/19 05:24:35;;;;;;;3.10;2.50;;;;;;;3.71;73.41;100152.90;87902;1281;83184;-61
2022/04/19 05:26:42;;;;;;;3.50;2.60;;;;;;;3.71;73.17;100153.98;88015;1281;100169;-62
2022/04/19 05:28:48;;;;;;;5.90;3.30;;;;;;;3.77;73.09;100158.52;88000;1281;87174;-62
2022/04/19 05:30:55;;;;;;;4.30;3.10;;;;;;;3.74;73.01;100162.41;87987;1281;95967;-60
2022/04/19 05:33:02;;;;;;;4.70;3.10;;;;;;;3.74;72.97;100167.90;87999;1280;78496;-61
2022/04/19 05:35:09;;;;;;;3.50;2.80;;;;;;;3.66;72.71;100168.54;88011;1280;80927;-61
2022/04/19 05:37:15;;;;;;;3.60;2.80;;;;;;;3.65;73.12;100169.36;88024;1280;99420;-74
2022/04/19 05:39:26;;;;;;;3.40;2.50;;;;;;;3.57;72.85;100175.77;87997;1281;87999;-70
2022/04/19 05:41:35;;;;;;;3.70;2.50;;;;;;;3.58;73.03;100179.29;87982;1281;94162;-73
2022/04/19 05:43:41;;;;;;;6.00;3.20;;;;;;;3.58;73.09;100181.38;88010;1281;81597;-60
2022/04/19 05:45:52;;;;;;;4.50;2.80;;;;;;;3.55;73.39;100184.55;87993;1281;80964;-60
2022/04/19 05:48:02;;;;;;;3.90;3.20;;;;;;;3.57;73.23;100185.64;87977;1281;98515;-74
2022/04/19 05:50:10;;;;;;;6.10;3.60;;;;;;;3.61;73.00;100188.05;87983;1281;88676;-75
2022/04/19 05:52:17;;;;;;;8.60;4.40;;;;;;;3.71;72.84;100194.40;87994;1281;93636;-74
2022/04/19 05:54:24;;;;;;;5.70;3.80;;;;;;;3.83;72.56;100194.06;87976;1279;77574;-73
2022/04/19 05:56:33;;;;;;;5.20;4.00;;;;;;;3.88;72.42;100196.27;88003;1281;81690;-73
2022/04/19 05:58:40;;;;;;;8.40;4.40;;;;;;;3.78;72.38;100196.91;87993;1281;100203;-74
2022/04/19 06:00:48;;;;;;;5.40;4.40;;;;;;;3.68;72.39;100193.61;88002;1281;89495;-73
2022/04/19 06:05:17;;;;;;;;;;;;;;;3.68;72.23;100199.18;87881;1278;79634;-60
2022/04/19 06:07:24;;;;;;;7.70;4.90;;;;;;;3.72;72.23;100197.15;87974;1280;81094;-73
2022/04/19 06:09:30;;;;;;;10.70;5.90;;;;;;;3.82;71.98;100205.02;87997;1281;99780;-74
2022/04/19 06:11:36;;;;;;;6.30;4.80;;;;;;;3.96;72.01;100208.59;87962;1281;88538;-74
2022/04/19 06:13:42;;;;;;;7.80;4.90;;;;;;;3.98;72.00;100214.60;87984;1281;92786;-74
2022/04/19 06:15:49;;;;;;;6.20;4.90;;;;;;;3.99;72.13;100214.73;87988;1281;77324;-58
2022/04/19 06:17:55;;;;;;;8.10;4.90;;;;;;;3.95;72.10;100219.55;88008;1281;82321;-74
2022/04/19 06:20:02;;;;;;;6.10;4.90;;;;;;;3.88;72.21;100219.97;87969;1281;97556;-75
2022/04/19 06:22:11;;;;;;;7.50;5.40;;;;;;;3.88;71.82;100219.08;88006;1281;89126;-75
2022/04/19 06:24:18;;;;;;;7.50;5.70;;;;;;;3.91;71.80;100220.31;87958;1281;93075;-75
2022/04/19 06:26:24;;;;;;;7.10;4.60;;;;;;;3.94;71.76;100218.23;87944;1281;77343;-74
2022/04/19 06:28:31;;;;;;;11.40;6.20;;;;;;;3.92;71.77;100222.01;87937;1281;82492;-73
2022/04/19 06:30:40;;;;;;;8.40;5.70;;;;;;;3.88;71.65;100220.64;87966;1281;97582;-59
2022/04/19 06:32:47;;;;;;;6.40;4.80;;;;;;;3.91;71.83;100227.65;87962;1280;89418;-73
2022/04/19 06:34:53;;;;;;;6.30;4.90;;;;;;;3.89;71.87;100226.61;87761;1284;93939;-76
2022/04/19 06:37:00;;;;;;;3.90;3.50;;;;;;;3.99;71.60;100227.70;87971;1281;79943;-74
2022/04/19 06:39:07;;;;;;;5.00;4.20;;;;;;;4.10;71.42;100227.48;87972;1281;79954;-74
2022/04/19 06:41:13;;;;;;;6.20;3.80;;;;;;;4.23;71.47;100230.91;87982;1281;97482;-74
2022/04/19 06:43:20;;;;;;;4.90;3.60;;;;;;;4.28;71.38;100234.66;87842;1281;88259;-61
2022/04/19 06:45:28;;;;;;;4.50;3.80;;;;;;;4.30;71.30;100240.64;87961;1281;94333;-61
2022/04/19 06:47:35;;;;;;;4.20;3.60;;;;;;;4.25;71.34;100241.89;87998;1281;76810;-60
2022/04/19 06:49:41;;;;;;;5.20;3.90;;;;;;;4.22;71.28;100246.84;87978;1281;82223;-61
2022/04/19 06:51:49;;;;;;;6.30;4.70;;;;;;;4.28;70.94;100247.80;87940;1281;100544;-76
2022/04/19 06:53:56;;;;;;;7.00;4.90;;;;;;;4.31;70.87;100249.30;87994;1281;88063;-75
2022/04/19 06:56:03;;;;;;;6.20;4.60;;;;;;;4.31;70.78;100253.19;87963;1281;95718;-73
2022/04/19 06:58:09;;;;;;;7.00;4.80;;;;;;;4.35;70.60;100257.13;87976;1281;79305;-59
2022/04/19 07:00:21;;;;;;;5.70;4.20;;;;;;;4.43;70.43;100255.75;87964;1281;83381;-60
2022/04/19 07:02:26;;;;;;;6.40;3.90;;;;;;;4.53;70.39;100259.73;87959;1281;99796;-74
2022/04/19 07:04:32;;;;;;;5.40;4.10;;;;;;;4.61;70.29;100261.70;87977;1281;88905;-73
2022/04/19 07:06:38;;;;;;;4.00;3.50;;;;;;;4.65;70.11;100266.30;87982;1281;92495;-65
2022/04/19 07:08:44;;;;;;;5.80;3.90;;;;;;;4.67;70.05;100274.02;87982;1281;78869;-60
2022/04/19 07:10:50;;;;;;;7.20;4.70;;;;;;;4.68;70.11;100271.76;87988;1281;82921;-60
2022/04/19 07:12:55;;;;;;;3.70;3.40;;;;;;;4.67;69.88;100274.64;87975;1281;100081;-73
2022/04/19 07:15:01;;;;;;;6.70;4.70;;;;;;;4.63;69.68;100273.13;87992;1281;87023;-72
2022/04/19 07:17:09;;;;;;;6.90;4.40;;;;;;;4.76;69.70;100272.92;87971;1281;95914;-60
2022/04/19 07:19:16;;;;;;;5.90;4.20;;;;;;;4.87;69.48;100271.21;87960;1281;77936;-60
2022/04/19 07:28:35;;;;;;;;;;;;;;;4.88;68.91;100282.02;88003;1281;95465;-71
2022/04/19 07:30:41;;;;;;;3.70;3.00;;;;;;;4.92;68.80;100286.20;88008;1281;78936;-73
2022/04/19 07:32:47;;;;;;;4.40;3.60;;;;;;;4.88;68.76;100295.74;88042;1280;80402;-74
2022/04/19 07:34:53;;;;;;;3.70;3.40;;;;;;;4.93;68.73;100287.91;87981;1281;99996;-75
2022/04/19 07:36:59;;;;;;;7.60;4.70;;;;;;;4.99;68.54;100295.45;88016;1281;88886;-75
2022/04/19 07:39:06;;;;;;;5.90;4.20;;;;;;;5.06;68.33;100295.67;88005;1281;95858;-62
2022/04/19 07:41:12;;;;;;;4.20;3.20;;;;;;;5.19;68.10;100291.79;88016;1281;79955;-60
2022/04/19 07:43:20;;;;;;;5.80;3.90;;;;;;;5.21;68.00;100293.20;88033;1281;82055;-63
2022/04/19 07:45:32;;;;;;;4.70;3.50;;;;;;;5.26;67.61;100296.41;87956;1281;98796;-61
2022/04/19 07:47:39;;;;;;;5.60;3.70;;;;;;;5.30;67.46;100293.84;87988;1281;86297;-73
2022/04/19 07:49:49;;;;;;;3.40;3.00;;;;;;;5.40;67.32;100295.67;88006;1281;95152;-74
2022/04/19 07:51:56;;;;;;;4.80;3.80;;;;;;;5.53;67.06;100300.11;87894;1281;77419;-60
2022/04/19 07:54:05;;;;;;;6.00;4.90;;;;;;;5.67;66.92;100301.84;88008;1281;80094;-60
2022/04/19 07:56:15;;;;;;;5.40;3.80;;;;;;;5.76;66.51;100305.09;88034;1279;98464;-72
2022/04/19 07:58:24;;;;;;;4.20;3.60;;;;;;;5.79;66.33;100309.08;88003;1281;88128;-73
2022/04/19 08:00:30;;;;;;;5.00;3.60;;;;;;;5.78;66.08;100314.52;87999;1281;93464;-75
2022/04/19 08:02:37;;;;;;;5.00;3.60;;;;;;;5.73;65.96;100315.13;87951;1279;77637;-72
2022/04/19 08:04:44;;;;;;;4.20;3.70;;;;;;;5.72;65.61;100315.66;88032;1280;81416;-73
2022/04/19 08:06:51;;;;;;;3.70;3.00;;;;;;;5.67;65.30;100314.60;87980;1280;100272;-59
2022/04/19 08:08:59;;;;;;;3.80;3.20;;;;;;;5.54;65.46;100319.98;88007;1279;89336;-60
2022/04/19 08:11:06;;;;;;;5.00;3.60;;;;;;;5.37;65.34;100319.55;87976;1280;94543;-61
2022/04/19 08:13:16;;;;;;;6.70;3.80;;;;;;;5.46;65.49;100317.96;88004;1280;77660;-72
2022/04/19 08:15:24;;;;;;;4.90;3.90;;;;;;;5.49;65.47;100321.95;87900;1281;81947;-72
2022/04/19 08:17:33;;;;;;;4.20;3.80;;;;;;;5.47;65.47;100327.11;88019;1280;99396;-60
2022/04/19 08:19:40;;;;;;;5.30;3.80;;;;;;;5.37;65.49;100328.45;88019;1280;87755;-60
2022/04/19 08:21:47;;;;;;;5.10;4.20;;;;;;;5.35;65.41;100332.41;88023;1280;94533;-71
2022/04/19 08:23:53;;;;;;;4.30;3.90;;;;;;;5.41;65.30;100336.91;88029;1279;77172;-73
2022/04/19 08:25:59;;;;;;;4.80;4.30;;;;;;;5.28;65.38;100339.02;88023;1280;82181;-73
2022/04/19 08:28:07;;;;;;;6.30;5.60;;;;;;;5.24;65.58;100339.98;87880;1281;99755;-61
2022/04/19 08:30:16;;;;;;;5.30;4.80;;;;;;;5.30;65.43;100339.02;88013;1280;87322;-60
2022/04/19 08:32:23;;;;;;;5.50;4.70;;;;;;;5.30;65.50;100339.89;87954;1281;95862;-74
2022/04/19 08:34:30;;;;;;;6.40;5.00;;;;;;;5.36;65.49;100341.66;87944;1279;76086;-66
2022/04/19 08:36:37;;;;;;;6.30;4.20;;;;;;;5.42;65.46;100342.84;87880;1281;82018;-64
2022/04/19 08:38:43;;;;;;;7.10;5.00;;;;;;;5.44;65.25;100341.52;87779;1282;99981;-74
2022/04/19 08:40:53;;;;;;;7.80;4.30;;;;;;;5.52;65.15;100339.44;88032;1280;88845;-73
2022/04/19 08:43:00;;;;;;;5.80;4.00;;;;;;;5.58;65.06;100337.75;88024;1280;95140;-70
2022/04/19 08:45:13;;;;;;;4.80;4.00;;;;;;;5.74;65.20;100339.86;88026;1279;80221;-72
2022/04/19 08:47:24;;;;;;;5.40;4.40;;;;;;;5.90;65.06;100341.67;88044;1279;81057;-60
2022/04/19 08:49:31;;;;;;;5.70;4.00;;;;;;;6.09;64.97;100341.11;88039;1279;98127;-60
2022/04/19 08:51:41;;;;;;;5.40;4.70;;;;;;;6.29;64.79;100342.75;88020;1279;89067;-60
2022/04/19 08:58:44;;;;;;;4.90;4.40;;;;;;;6.59;63.73;100343.27;87842;1281;82764;-77
2022/04/19 09:00:53;;;;;;;5.30;4.30;;;;;;;6.58;63.68;100344.10;87979;1280;98982;-78
2022/04/19 09:03:02;;;;;;;4.90;4.10;;;;;;;6.66;63.34;100345.16;87991;1280;89537;-79
2022/04/19 09:05:17;;;;;;;4.90;4.00;;;;;;;6.68;62.99;100344.23;88010;1279;93924;-77
2022/04/19 09:07:37;;;;;;;5.30;4.50;;;;;;;6.61;62.97;100345.21;87826;1282;80849;-60
2022/04/19 09:09:59;;;;;;;6.80;3.70;;;;;;;6.60;62.90;100348.70;88003;1279;83025;-60
2022/04/19 09:12:12;;;;;;;5.00;4.50;;;;;;;6.53;62.86;100350.00;87865;1281;100002;-60
2022/04/19 09:14:18;;;;;;;4.60;4.20;;;;;;;6.57;62.87;100349.70;88001;1279;87806;-61
2022/04/19 09:16:26;;;;;;;5.20;4.20;;;;;;;6.60;62.44;100352.10;88002;1279;94834;-60
2022/04/19 09:18:36;;;;;;;5.00;4.30;;;;;;;6.51;62.42;100354.63;87970;1279;78750;-73
2022/04/19 09:20:51;;;;;;;5.00;4.00;;;;;;;6.42;62.45;100357.55;88048;1279;82538;-72
2022/04/19 09:23:07;;;;;;;5.70;3.90;;;;;;;6.46;62.45;100359.34;88022;1279;96755;-60
2022/04/19 09:25:20;;;;;;;4.20;3.60;;;;;;;6.56;62.42;100358.02;88017;1279;88464;-61
2022/04/19 09:27:36;;;;;;;4.00;3.40;;;;;;;6.72;62.20;100354.73;88060;1280;93894;-71
2022/04/19 09:29:42;;;;;;;3.50;3.10;;;;;;;6.90;61.98;100359.55;88024;1279;77696;-72
2022/04/19 09:31:50;;;;;;;3.80;3.20;;;;;;;7.06;61.65;100356.67;88020;1279;81163;-71
2022/04/19 09:34:02;;;;;;;3.80;3.10;;;;;;;7.17;61.59;100353.75;87973;1281;97984;-72
2022/04/19 09:36:09;;;;;;;4.90;3.40;;;;;;;7.14;61.14;100357.60;87989;1281;89144;-71
2022/04/19 09:38:32;;;;;;;4.10;3.50;;;;;;;7.18;61.08;100358.18;87960;1281;95799;-60
2022/04/19 09:40:41;;;;;;;4.90;4.00;;;;;;;7.14;60.43;100357.23;87897;1280;79697;-60
2022/04/19 09:42:54;;;;;;;3.90;3.50;;;;;;;7.08;60.71;100362.17;87995;1281;82610;-60
2022/04/19 09:45:04;;;;;;;5.40;3.40;;;;;;;7.12;60.32;100365.13;87798;1282;99245;-60
2022/04/19 09:47:13;;;;;;;5.00;3.50;;;;;;;7.13;60.45;100365.39;87899;1281;88174;-72
2022/04/19 09:49:44;;;;;;;3.70;3.30;;;;;;;7.16;60.16;100371.34;87983;1281;96054;-72
2022/04/19 09:51:53;;;;;;;4.70;3.80;;;;;;;7.19;60.13;100367.05;87831;1281;78387;-73
2022/04/19 09:54:00;;;;;;;3.90;3.50;;;;;;;7.16;60.15;100372.95;87891;1281;82137;-71
2022/04/19 09:56:11;;;;;;;4.90;3.70;;;;;;;7.06;59.85;100374.02;87894;1281;97314;-74
2022/04/19 09:58:20;;;;;;;4.30;3.60;;;;;;;7.05;59.90;100380.45;87986;1280;88099;-71
2022/04/19 10:00:30;;;;;;;6.90;3.80;;;;;;;6.99;59.84;100382.85;87977;1281;93467;-71
2022/04/19 10:10:02;;;;;;;4.40;3.00;;;;;;;6.71;59.58;100384.83;87977;1281;87331;-71
2022/04/19 10:12:10;;;;;;;3.30;3.00;;;;;;;6.69;59.47;100387.77;88017;1281;94941;-59
2022/04/19 10:14:21;;;;;;;4.30;3.30;;;;;;;6.70;59.61;100387.38;87986;1280;78606;-61
2022/04/19 10:16:32;;;;;;;5.60;2.90;;;;;;;6.72;59.66;100390.00;87984;1281;81324;-60
2022/04/19 10:18:43;;;;;;;5.20;3.30;;;;;;;6.72;59.59;100392.14;87979;1281;99416;-73
2022/04/19 10:21:00;;;;;;;4.10;3.20;;;;;;;6.74;59.48;100392.78;87981;1281;87597;-73
2022/04/19 10:23:10;;;;;;;4.90;4.40;;;;;;;6.68;59.49;100393.05;87970;1281;95396;-74
2022/04/19 10:25:19;;;;;;;5.40;3.20;;;;;;;6.63;59.62;100387.89;87963;1281;80571;-72
2022/04/19 10:27:36;;;;;;;7.20;3.80;;;;;;;6.64;59.44;100391.59;87966;1281;81134;-72
2022/04/19 10:29:51;;;;;;;7.20;5.30;;;;;;;6.64;59.57;100390.82;87999;1281;97223;-61
2022/04/19 10:32:02;;;;;;;10.30;5.00;;;;;;;6.68;59.59;100391.79;87958;1281;88326;-60
2022/04/19 10:34:08;;;;;;;10.80;8.00;;;;;;;6.67;59.73;100394.82;87890;1281;93743;-60
2022/04/19 10:36:23;;;;;;;10.50;6.20;;;;;;;6.77;59.64;100394.23;87977;1281;77296;-62